sensor_id;sensor_type;location;lat;lon;timestamp;P1;durP1;ratioP1;P2;durP2;ratioP2
59410;SDS011;45215;32.610;-115.482;2022-09-09T00:00:22;8.43;;;2.40;;
59410;SDS011;45215;32.610;-115.482;2022-09-09T00:02:52;7.97;;;2.10;;
59410;SDS011;45215;32.610;-115.482;2022-09-09T00:05:33;6.43;;;2.88;;
59410;SDS011;45215;32.610;-115.482;2022-09-09T00:08:21;8.63;;;2.60;;
59410;SDS011;45215;32.610;-115.482;2022-09-09T00:10:57;8.93;;;2.58;;
59410;SDS011;45215;32.610;-115.482;2022-09-09T00:13:41;4.68;;;2.28;;
59410;SDS011;45215;32.610;-115.482;2022-09-09T00:16:27;7.32;;;2.85;;
59410;SDS011;45215;32.610;-115.482;2022-09-09T00:19:00;6.53;;;2.38;;
59410;SDS011;45215;32.610;-115.482;2022-09-09T00:21:34;8.27;;;2.50;;
59410;SDS011;45215;32.610;-115.482;2022-09-09T00:24:23;7.40;;;2.40;;
59410;SDS011;45215;32.610;-115.482;2022-09-09T00:26:55;5.95;;;2.40;;
59410;SDS011;45215;32.610;-115.482;2022-09-09T00:29:43;6.88;;;2.38;;
59410;SDS011;45215;32.610;-115.482;2022-09-09T00:32:16;7.15;;;2.80;;
59410;SDS011;45215;32.610;-115.482;2022-09-09T00:37:47;5.30;;;2.33;;
59410;SDS011;45215;32.610;-115.482;2022-09-09T00:40:23;5.07;;;2.10;;
59410;SDS011;45215;32.610;-115.482;2022-09-09T00:43:07;4.50;;;2.10;;
59410;SDS011;45215;32.610;-115.482;2022-09-09T00:48:26;6.63;;;2.10;;
59410;SDS011;45215;32.610;-115.482;2022-09-09T00:51:54;4.03;;;1.88;;
59410;SDS011;45215;32.610;-115.482;2022-09-09T00:57:28;4.15;;;2.05;;
59410;SDS011;45215;32.610;-115.482;2022-09-09T01:00:19;3.70;;;1.83;;
59410;SDS011;45215;32.610;-115.482;2022-09-09T01:03:22;4.20;;;1.80;;
59410;SDS011;45215;32.610;-115.482;2022-09-09T01:06:20;4.25;;;1.92;;
59410;SDS011;45215;32.610;-115.482;2022-09-09T01:09:10;4.07;;;1.60;;
59410;SDS011;45215;32.610;-115.482;2022-09-09T01:20:23;2.88;;;1.60;;
59410;SDS011;45215;32.610;-115.482;2022-09-09T01:28:00;3.53;;;1.77;;
59410;SDS011;45215;32.610;-115.482;2022-09-09T01:30:30;2.78;;;1.50;;
59410;SDS011;45215;32.610;-115.482;2022-09-09T01:32:58;3.78;;;1.55;;
59410;SDS011;45215;32.610;-115.482;2022-09-09T01:38:03;3.17;;;1.77;;
59410;SDS011;45215;32.610;-115.482;2022-09-09T01:40:30;3.22;;;1.40;;
59410;SDS011;45215;32.610;-115.482;2022-09-09T01:42:57;1.77;;;1.58;;
59410;SDS011;45215;32.610;-115.482;2022-09-09T01:45:24;2.42;;;1.65;;
59410;SDS011;45215;32.610;-115.482;2022-09-09T01:47:52;2.85;;;1.33;;
59410;SDS011;45215;32.610;-115.482;2022-09-09T01:59:38;2.25;;;1.20;;
59410;SDS011;45215;32.610;-115.482;2022-09-09T02:02:18;2.60;;;1.40;;
59410;SDS011;45215;32.610;-115.482;2022-09-09T02:05:32;3.13;;;1.33;;
59410;SDS011;45215;32.610;-115.482;2022-09-09T02:08:08;2.67;;;1.20;;
59410;SDS011;45215;32.610;-115.482;2022-09-09T02:10:40;5.00;;;1.48;;
59410;SDS011;45215;32.610;-115.482;2022-09-09T02:13:16;1.70;;;1.15;;
59410;SDS011;45215;32.610;-115.482;2022-09-09T02:15:47;2.38;;;1.20;;
59410;SDS011;45215;32.610;-115.482;2022-09-09T02:18:25;2.50;;;1.30;;
59410;SDS011;45215;32.610;-115.482;2022-09-09T02:20:56;1.80;;;1.30;;
59410;SDS011;45215;32.610;-115.482;2022-09-09T02:23:24;2.97;;;1.40;;
59410;SDS011;45215;32.610;-115.482;2022-09-09T02:25:50;2.28;;;1.20;;
59410;SDS011;45215;32.610;-115.482;2022-09-09T02:28:19;2.22;;;1.45;;
59410;SDS011;45215;32.610;-115.482;2022-09-09T02:30:49;2.63;;;1.15;;
59410;SDS011;45215;32.610;-115.482;2022-09-09T02:33:22;1.70;;;1.25;;
59410;SDS011;45215;32.610;-115.482;2022-09-09T02:35:52;2.00;;;1.17;;
59410;SDS011;45215;32.610;-115.482;2022-09-09T02:38:21;1.60;;;1.13;;
59410;SDS011;45215;32.610;-115.482;2022-09-09T02:40:53;3.10;;;1.20;;
59410;SDS011;45215;32.610;-115.482;2022-09-09T02:43:20;3.83;;;1.40;;
59410;SDS011;45215;32.610;-115.482;2022-09-09T02:54:27;3.67;;;1.52;;
59410;SDS011;45215;32.610;-115.482;2022-09-09T02:57:04;2.00;;;1.38;;
59410;SDS011;45215;32.610;-115.482;2022-09-09T02:59:34;2.65;;;1.30;;
59410;SDS011;45215;32.610;-115.482;2022-09-09T03:02:00;2.00;;;1.40;;
59410;SDS011;45215;32.610;-115.482;2022-09-09T03:04:26;1.55;;;1.10;;
59410;SDS011;45215;32.610;-115.482;2022-09-09T03:06:53;2.63;;;1.23;;
59410;SDS011;45215;32.610;-115.482;2022-09-09T03:09:19;2.63;;;1.40;;
59410;SDS011;45215;32.610;-115.482;2022-09-09T03:11:45;2.13;;;1.35;;
59410;SDS011;45215;32.610;-115.482;2022-09-09T03:14:11;4.60;;;1.40;;
59410;SDS011;45215;32.610;-115.482;2022-09-09T03:16:37;4.85;;;1.40;;
59410;SDS011;45215;32.610;-115.482;2022-09-09T03:19:03;3.45;;;1.63;;
59410;SDS011;45215;32.610;-115.482;2022-09-09T03:21:30;1.88;;;1.40;;
59410;SDS011;45215;32.610;-115.482;2022-09-09T03:23:56;3.08;;;1.30;;
59410;SDS011;45215;32.610;-115.482;2022-09-09T03:26:22;2.60;;;1.25;;
59410;SDS011;45215;32.610;-115.482;2022-09-09T03:28:48;1.70;;;1.40;;
59410;SDS011;45215;32.610;-115.482;2022-09-09T03:31:15;2.30;;;1.67;;
59410;SDS011;45215;32.610;-115.482;2022-09-09T03:33:41;2.67;;;1.42;;
59410;SDS011;45215;32.610;-115.482;2022-09-09T03:36:07;1.83;;;1.30;;
59410;SDS011;45215;32.610;-115.482;2022-09-09T03:38:33;2.03;;;1.30;;
59410;SDS011;45215;32.610;-115.482;2022-09-09T03:41:00;2.97;;;1.27;;
59410;SDS011;45215;32.610;-115.482;2022-09-09T03:43:27;1.38;;;1.27;;
59410;SDS011;45215;32.610;-115.482;2022-09-09T03:45:54;1.98;;;1.40;;
59410;SDS011;45215;32.610;-115.482;2022-09-09T03:48:22;1.95;;;1.23;;
59410;SDS011;45215;32.610;-115.482;2022-09-09T03:50:50;2.75;;;1.30;;
59410;SDS011;45215;32.610;-115.482;2022-09-09T03:53:19;3.55;;;1.42;;
59410;SDS011;45215;32.610;-115.482;2022-09-09T03:55:51;2.67;;;1.42;;
59410;SDS011;45215;32.610;-115.482;2022-09-09T03:58:25;2.78;;;1.58;;
59410;SDS011;45215;32.610;-115.482;2022-09-09T04:03:22;1.90;;;1.52;;
59410;SDS011;45215;32.610;-115.482;2022-09-09T04:05:50;2.78;;;1.30;;
59410;SDS011;45215;32.610;-115.482;2022-09-09T04:08:17;1.98;;;1.50;;
59410;SDS011;45215;32.610;-115.482;2022-09-09T04:10:45;2.47;;;1.55;;
59410;SDS011;45215;32.610;-115.482;2022-09-09T04:13:12;2.95;;;1.30;;
59410;SDS011;45215;32.610;-115.482;2022-09-09T04:15:40;1.35;;;1.20;;
59410;SDS011;45215;32.610;-115.482;2022-09-09T04:18:06;3.03;;;1.30;;
59410;SDS011;45215;32.610;-115.482;2022-09-09T04:20:32;2.28;;;1.33;;
59410;SDS011;45215;32.610;-115.482;2022-09-09T04:22:58;2.10;;;1.30;;
59410;SDS011;45215;32.610;-115.482;2022-09-09T04:25:25;1.98;;;1.38;;
59410;SDS011;45215;32.610;-115.482;2022-09-09T04:27:54;1.83;;;1.23;;
59410;SDS011;45215;32.610;-115.482;2022-09-09T04:30:21;1.40;;;1.10;;
59410;SDS011;45215;32.610;-115.482;2022-09-09T04:32:48;1.45;;;1.25;;
59410;SDS011;45215;32.610;-115.482;2022-09-09T04:35:14;1.48;;;1.20;;
59410;SDS011;45215;32.610;-115.482;2022-09-09T04:37:41;2.15;;;1.40;;
59410;SDS011;45215;32.610;-115.482;2022-09-09T04:40:07;1.98;;;1.20;;
59410;SDS011;45215;32.610;-115.482;2022-09-09T04:42:37;3.20;;;1.30;;
59410;SDS011;45215;32.610;-115.482;2022-09-09T04:45:05;2.08;;;1.40;;
59410;SDS011;45215;32.610;-115.482;2022-09-09T04:47:32;3.05;;;1.10;;
59410;SDS011;45215;32.610;-115.482;2022-09-09T04:50:01;1.40;;;1.23;;
59410;SDS011;45215;32.610;-115.482;2022-09-09T04:52:27;3.28;;;1.40;;
59410;SDS011;45215;32.610;-115.482;2022-09-09T04:54:53;1.60;;;1.30;;
59410;SDS011;45215;32.610;-115.482;2022-09-09T04:57:19;3.55;;;1.30;;
59410;SDS011;45215;32.610;-115.482;2022-09-09T04:59:46;2.17;;;1.30;;
59410;SDS011;45215;32.610;-115.482;2022-09-09T05:02:13;2.28;;;1.35;;
59410;SDS011;45215;32.610;-115.482;2022-09-09T05:04:39;1.70;;;1.40;;
59410;SDS011;45215;32.610;-115.482;2022-09-09T05:07:05;1.48;;;1.35;;
59410;SDS011;45215;32.610;-115.482;2022-09-09T05:09:32;1.60;;;1.20;;
59410;SDS011;45215;32.610;-115.482;2022-09-09T05:11:58;2.45;;;1.50;;
59410;SDS011;45215;32.610;-115.482;2022-09-09T05:14:24;1.30;;;1.10;;
59410;SDS011;45215;32.610;-115.482;2022-09-09T05:16:51;2.72;;;1.30;;
59410;SDS011;45215;32.610;-115.482;2022-09-09T05:19:17;3.08;;;1.40;;
59410;SDS011;45215;32.610;-115.482;2022-09-09T05:21:45;2.30;;;1.50;;
59410;SDS011;45215;32.610;-115.482;2022-09-09T05:24:11;1.83;;;1.60;;
59410;SDS011;45215;32.610;-115.482;2022-09-09T05:26:37;1.40;;;1.30;;
59410;SDS011;45215;32.610;-115.482;2022-09-09T05:29:03;1.63;;;1.20;;
59410;SDS011;45215;32.610;-115.482;2022-09-09T05:31:30;2.75;;;1.45;;
59410;SDS011;45215;32.610;-115.482;2022-09-09T05:33:56;3.30;;;1.52;;
59410;SDS011;45215;32.610;-115.482;2022-09-09T05:36:24;2.78;;;1.25;;
59410;SDS011;45215;32.610;-115.482;2022-09-09T05:38:50;2.20;;;1.58;;
59410;SDS011;45215;32.610;-115.482;2022-09-09T05:41:19;1.80;;;1.35;;
59410;SDS011;45215;32.610;-115.482;2022-09-09T05:43:45;2.55;;;1.48;;
59410;SDS011;45215;32.610;-115.482;2022-09-09T05:46:16;2.03;;;1.27;;
59410;SDS011;45215;32.610;-115.482;2022-09-09T05:48:44;1.40;;;1.30;;
59410;SDS011;45215;32.610;-115.482;2022-09-09T05:51:16;1.65;;;1.20;;
59410;SDS011;45215;32.610;-115.482;2022-09-09T05:53:49;1.30;;;1.10;;
59410;SDS011;45215;32.610;-115.482;2022-09-09T05:56:17;2.40;;;1.33;;
59410;SDS011;45215;32.610;-115.482;2022-09-09T05:58:47;1.38;;;1.27;;
59410;SDS011;45215;32.610;-115.482;2022-09-09T06:03:47;1.90;;;1.20;;
59410;SDS011;45215;32.610;-115.482;2022-09-09T06:06:15;2.30;;;1.20;;
59410;SDS011;45215;32.610;-115.482;2022-09-09T06:08:43;2.92;;;1.23;;
59410;SDS011;45215;32.610;-115.482;2022-09-09T06:11:11;1.60;;;1.15;;
59410;SDS011;45215;32.610;-115.482;2022-09-09T06:13:48;3.05;;;1.10;;
59410;SDS011;45215;32.610;-115.482;2022-09-09T06:16:20;2.87;;;1.20;;
59410;SDS011;45215;32.610;-115.482;2022-09-09T06:18:51;1.48;;;1.10;;
59410;SDS011;45215;32.610;-115.482;2022-09-09T06:21:22;5.45;;;1.30;;
59410;SDS011;45215;32.610;-115.482;2022-09-09T06:23:53;1.27;;;1.10;;
59410;SDS011;45215;32.610;-115.482;2022-09-09T06:26:23;3.67;;;1.20;;
59410;SDS011;45215;32.610;-115.482;2022-09-09T06:28:51;1.83;;;1.17;;
59410;SDS011;45215;32.610;-115.482;2022-09-09T06:31:20;1.10;;;1.00;;
59410;SDS011;45215;32.610;-115.482;2022-09-09T06:33:52;1.80;;;1.10;;
59410;SDS011;45215;32.610;-115.482;2022-09-09T06:36:21;1.70;;;1.00;;
59410;SDS011;45215;32.610;-115.482;2022-09-09T06:38:49;2.53;;;1.20;;
59410;SDS011;45215;32.610;-115.482;2022-09-09T06:41:16;1.58;;;1.08;;
59410;SDS011;45215;32.610;-115.482;2022-09-09T06:43:44;1.48;;;1.00;;
59410;SDS011;45215;32.610;-115.482;2022-09-09T06:46:23;2.53;;;0.95;;
59410;SDS011;45215;32.610;-115.482;2022-09-09T06:48:55;2.10;;;0.90;;
59410;SDS011;45215;32.610;-115.482;2022-09-09T06:51:24;1.38;;;1.10;;
59410;SDS011;45215;32.610;-115.482;2022-09-09T06:53:54;2.08;;;1.00;;
59410;SDS011;45215;32.610;-115.482;2022-09-09T06:59:08;1.45;;;0.80;;
59410;SDS011;45215;32.610;-115.482;2022-09-09T07:01:36;3.72;;;0.90;;
59410;SDS011;45215;32.610;-115.482;2022-09-09T07:04:06;3.25;;;0.95;;
59410;SDS011;45215;32.610;-115.482;2022-09-09T07:06:35;3.22;;;0.90;;
59410;SDS011;45215;32.610;-115.482;2022-09-09T07:09:06;6.80;;;1.00;;
59410;SDS011;45215;32.610;-115.482;2022-09-09T07:11:37;6.88;;;0.90;;
59410;SDS011;45215;32.610;-115.482;2022-09-09T07:14:08;3.70;;;0.95;;
59410;SDS011;45215;32.610;-115.482;2022-09-09T07:16:34;4.05;;;1.10;;
59410;SDS011;45215;32.610;-115.482;2022-09-09T07:19:02;5.45;;;0.90;;
59410;SDS011;45215;32.610;-115.482;2022-09-09T07:21:30;37.40;;;2.45;;
59410;SDS011;45215;32.610;-115.482;2022-09-09T07:23:57;11.35;;;1.23;;
59410;SDS011;45215;32.610;-115.482;2022-09-09T07:26:25;7.00;;;1.08;;
59410;SDS011;45215;32.610;-115.482;2022-09-09T07:28:53;9.50;;;1.10;;
59410;SDS011;45215;32.610;-115.482;2022-09-09T07:31:22;5.53;;;1.00;;
59410;SDS011;45215;32.610;-115.482;2022-09-09T07:33:53;3.35;;;1.13;;
59410;SDS011;45215;32.610;-115.482;2022-09-09T07:36:23;4.65;;;1.00;;
59410;SDS011;45215;32.610;-115.482;2022-09-09T07:38:52;4.85;;;1.05;;
59410;SDS011;45215;32.610;-115.482;2022-09-09T07:41:21;3.17;;;0.93;;
59410;SDS011;45215;32.610;-115.482;2022-09-09T07:43:50;5.20;;;1.00;;
59410;SDS011;45215;32.610;-115.482;2022-09-09T07:46:19;3.30;;;1.00;;
59410;SDS011;45215;32.610;-115.482;2022-09-09T07:48:48;3.45;;;0.75;;
59410;SDS011;45215;32.610;-115.482;2022-09-09T07:51:17;3.17;;;0.73;;
59410;SDS011;45215;32.610;-115.482;2022-09-09T07:54:05;6.57;;;1.00;;
59410;SDS011;45215;32.610;-115.482;2022-09-09T07:56:34;2.65;;;0.90;;
59410;SDS011;45215;32.610;-115.482;2022-09-09T07:59:02;4.85;;;0.80;;
59410;SDS011;45215;32.610;-115.482;2022-09-09T08:01:33;5.32;;;0.90;;
59410;SDS011;45215;32.610;-115.482;2022-09-09T08:04:03;1.63;;;0.70;;
59410;SDS011;45215;32.610;-115.482;2022-09-09T08:07:00;2.63;;;0.88;;
59410;SDS011;45215;32.610;-115.482;2022-09-09T08:09:28;3.15;;;0.90;;
59410;SDS011;45215;32.610;-115.482;2022-09-09T08:11:55;4.25;;;0.70;;
59410;SDS011;45215;32.610;-115.482;2022-09-09T08:14:22;2.25;;;0.80;;
59410;SDS011;45215;32.610;-115.482;2022-09-09T08:16:49;2.92;;;0.70;;
59410;SDS011;45215;32.610;-115.482;2022-09-09T08:19:18;1.70;;;0.68;;
59410;SDS011;45215;32.610;-115.482;2022-09-09T08:21:44;1.50;;;0.65;;
59410;SDS011;45215;32.610;-115.482;2022-09-09T08:24:11;3.28;;;0.80;;
59410;SDS011;45215;32.610;-115.482;2022-09-09T08:26:41;3.28;;;0.80;;
59410;SDS011;45215;32.610;-115.482;2022-09-09T08:29:16;1.90;;;0.57;;
59410;SDS011;45215;32.610;-115.482;2022-09-09T08:31:47;2.15;;;0.63;;
59410;SDS011;45215;32.610;-115.482;2022-09-09T08:34:19;2.78;;;0.70;;
59410;SDS011;45215;32.610;-115.482;2022-09-09T08:36:47;1.95;;;0.60;;
59410;SDS011;45215;32.610;-115.482;2022-09-09T08:39:15;1.63;;;0.55;;
59410;SDS011;45215;32.610;-115.482;2022-09-09T08:41:59;1.45;;;0.73;;
59410;SDS011;45215;32.610;-115.482;2022-09-09T08:50:22;2.72;;;0.70;;
59410;SDS011;45215;32.610;-115.482;2022-09-09T08:58:21;0.98;;;0.55;;
59410;SDS011;45215;32.610;-115.482;2022-09-09T09:12:23;2.28;;;0.60;;
59410;SDS011;45215;32.610;-115.482;2022-09-09T09:14:52;1.27;;;0.70;;
59410;SDS011;45215;32.610;-115.482;2022-09-09T09:17:21;0.82;;;0.60;;
59410;SDS011;45215;32.610;-115.482;2022-09-09T09:19:51;1.42;;;0.68;;
59410;SDS011;45215;32.610;-115.482;2022-09-09T09:22:21;1.15;;;0.65;;
59410;SDS011;45215;32.610;-115.482;2022-09-09T09:30:29;3.55;;;0.68;;
59410;SDS011;45215;32.610;-115.482;2022-09-09T09:35:54;0.60;;;0.50;;
59410;SDS011;45215;32.610;-115.482;2022-09-09T09:38:24;1.48;;;0.50;;
59410;SDS011;45215;32.610;-115.482;2022-09-09T09:40:53;0.80;;;0.52;;
59410;SDS011;45215;32.610;-115.482;2022-09-09T09:46:00;2.03;;;0.60;;
59410;SDS011;45215;32.610;-115.482;2022-09-09T09:48:28;0.90;;;0.50;;
59410;SDS011;45215;32.610;-115.482;2022-09-09T09:51:08;1.05;;;0.50;;
59410;SDS011;45215;32.610;-115.482;2022-09-09T09:53:40;1.40;;;0.50;;
59410;SDS011;45215;32.610;-115.482;2022-09-09T09:56:08;0.90;;;0.40;;
59410;SDS011;45215;32.610;-115.482;2022-09-09T09:58:48;0.60;;;0.40;;
59410;SDS011;45215;32.610;-115.482;2022-09-09T10:01:49;2.92;;;0.60;;
59410;SDS011;45215;32.610;-115.482;2022-09-09T10:04:15;1.92;;;0.50;;
59410;SDS011;45215;32.610;-115.482;2022-09-09T10:06:49;1.08;;;0.50;;
59410;SDS011;45215;32.610;-115.482;2022-09-09T10:09:29;0.70;;;0.40;;
59410;SDS011;45215;32.610;-115.482;2022-09-09T10:12:20;0.85;;;0.50;;
59410;SDS011;45215;32.610;-115.482;2022-09-09T10:15:12;1.10;;;0.38;;
59410;SDS011;45215;32.610;-115.482;2022-09-09T10:18:15;0.85;;;0.50;;
59410;SDS011;45215;32.610;-115.482;2022-09-09T10:27:10;0.95;;;0.40;;
59410;SDS011;45215;32.610;-115.482;2022-09-09T10:32:45;0.73;;;0.47;;
59410;SDS011;45215;32.610;-115.482;2022-09-09T10:35:30;0.90;;;0.50;;
59410;SDS011;45215;32.610;-115.482;2022-09-09T10:38:12;0.98;;;0.50;;
59410;SDS011;45215;32.610;-115.482;2022-09-09T10:46:16;0.80;;;0.40;;
59410;SDS011;45215;32.610;-115.482;2022-09-09T10:52:17;1.23;;;0.57;;
59410;SDS011;45215;32.610;-115.482;2022-09-09T10:57:13;1.17;;;0.50;;
59410;SDS011;45215;32.610;-115.482;2022-09-09T10:59:52;0.80;;;0.50;;
59410;SDS011;45215;32.610;-115.482;2022-09-09T11:02:25;1.13;;;0.50;;
59410;SDS011;45215;32.610;-115.482;2022-09-09T11:10:22;0.77;;;0.45;;
59410;SDS011;45215;32.610;-115.482;2022-09-09T11:13:15;0.70;;;0.50;;
59410;SDS011;45215;32.610;-115.482;2022-09-09T11:16:15;1.02;;;0.40;;
59410;SDS011;45215;32.610;-115.482;2022-09-09T11:18:48;0.60;;;0.40;;
59410;SDS011;45215;32.610;-115.482;2022-09-09T11:21:26;0.63;;;0.57;;
59410;SDS011;45215;32.610;-115.482;2022-09-09T11:24:05;1.27;;;0.50;;
59410;SDS011;45215;32.610;-115.482;2022-09-09T11:26:50;0.70;;;0.40;;
59410;SDS011;45215;32.610;-115.482;2022-09-09T11:32:24;0.70;;;0.40;;
59410;SDS011;45215;32.610;-115.482;2022-09-09T11:40:34;0.90;;;0.60;;
59410;SDS011;45215;32.610;-115.482;2022-09-09T11:43:01;1.05;;;0.50;;
59410;SDS011;45215;32.610;-115.482;2022-09-09T11:45:31;0.90;;;0.50;;
59410;SDS011;45215;32.610;-115.482;2022-09-09T11:48:01;2.05;;;0.47;;
59410;SDS011;45215;32.610;-115.482;2022-09-09T11:53:06;2.08;;;0.60;;
59410;SDS011;45215;32.610;-115.482;2022-09-09T11:55:46;1.77;;;0.55;;
59410;SDS011;45215;32.610;-115.482;2022-09-09T11:58:15;2.55;;;0.73;;
59410;SDS011;45215;32.610;-115.482;2022-09-09T12:00:45;1.90;;;0.40;;
59410;SDS011;45215;32.610;-115.482;2022-09-09T12:06:10;0.98;;;0.50;;
59410;SDS011;45215;32.610;-115.482;2022-09-09T12:09:06;0.77;;;0.40;;
59410;SDS011;45215;32.610;-115.482;2022-09-09T12:11:40;1.50;;;0.55;;
59410;SDS011;45215;32.610;-115.482;2022-09-09T12:14:19;1.35;;;0.70;;
59410;SDS011;45215;32.610;-115.482;2022-09-09T12:19:42;0.85;;;0.40;;
59410;SDS011;45215;32.610;-115.482;2022-09-09T12:28:02;0.82;;;0.40;;
59410;SDS011;45215;32.610;-115.482;2022-09-09T12:33:39;1.20;;;0.50;;
59410;SDS011;45215;32.610;-115.482;2022-09-09T12:36:13;1.48;;;0.40;;
59410;SDS011;45215;32.610;-115.482;2022-09-09T12:38:47;0.65;;;0.40;;
59410;SDS011;45215;32.610;-115.482;2022-09-09T12:41:18;1.15;;;0.40;;
59410;SDS011;45215;32.610;-115.482;2022-09-09T12:43:46;1.48;;;0.50;;
59410;SDS011;45215;32.610;-115.482;2022-09-09T12:46:20;1.42;;;0.40;;
59410;SDS011;45215;32.610;-115.482;2022-09-09T12:49:01;2.08;;;0.40;;
59410;SDS011;45215;32.610;-115.482;2022-09-09T12:51:31;1.05;;;0.43;;
59410;SDS011;45215;32.610;-115.482;2022-09-09T12:53:58;0.30;;;0.30;;
59410;SDS011;45215;32.610;-115.482;2022-09-09T12:56:27;1.30;;;0.30;;
59410;SDS011;45215;32.610;-115.482;2022-09-09T12:58:56;4.65;;;0.50;;
59410;SDS011;45215;32.610;-115.482;2022-09-09T13:01:27;3.40;;;0.65;;
59410;SDS011;45215;32.610;-115.482;2022-09-09T13:03:56;1.27;;;0.40;;
59410;SDS011;45215;32.610;-115.482;2022-09-09T13:06:24;1.33;;;0.50;;
59410;SDS011;45215;32.610;-115.482;2022-09-09T13:08:53;1.02;;;0.40;;
59410;SDS011;45215;32.610;-115.482;2022-09-09T13:14:00;1.63;;;0.50;;
59410;SDS011;45215;32.610;-115.482;2022-09-09T13:16:28;1.73;;;0.50;;
59410;SDS011;45215;32.610;-115.482;2022-09-09T13:19:17;1.88;;;0.50;;
59410;SDS011;45215;32.610;-115.482;2022-09-09T13:21:43;2.30;;;0.60;;
59410;SDS011;45215;32.610;-115.482;2022-09-09T13:27:02;1.40;;;0.55;;
59410;SDS011;45215;32.610;-115.482;2022-09-09T13:29:31;1.20;;;0.50;;
59410;SDS011;45215;32.610;-115.482;2022-09-09T13:32:12;0.93;;;0.43;;
59410;SDS011;45215;32.610;-115.482;2022-09-09T13:34:50;0.73;;;0.38;;
59410;SDS011;45215;32.610;-115.482;2022-09-09T13:37:26;1.58;;;0.50;;
59410;SDS011;45215;32.610;-115.482;2022-09-09T13:39:55;1.98;;;0.40;;
59410;SDS011;45215;32.610;-115.482;2022-09-09T13:42:25;1.98;;;0.50;;
59410;SDS011;45215;32.610;-115.482;2022-09-09T13:44:53;1.83;;;0.40;;
59410;SDS011;45215;32.610;-115.482;2022-09-09T13:47:31;1.42;;;0.50;;
59410;SDS011;45215;32.610;-115.482;2022-09-09T13:52:57;0.93;;;0.40;;
59410;SDS011;45215;32.610;-115.482;2022-09-09T13:55:27;0.90;;;0.40;;
59410;SDS011;45215;32.610;-115.482;2022-09-09T13:57:55;0.80;;;0.43;;
59410;SDS011;45215;32.610;-115.482;2022-09-09T14:00:26;1.40;;;0.50;;
59410;SDS011;45215;32.610;-115.482;2022-09-09T14:02:54;1.63;;;0.50;;
59410;SDS011;45215;32.610;-115.482;2022-09-09T14:05:20;2.20;;;0.60;;
59410;SDS011;45215;32.610;-115.482;2022-09-09T14:07:47;0.98;;;0.40;;
59410;SDS011;45215;32.610;-115.482;2022-09-09T14:10:15;1.20;;;0.40;;
59410;SDS011;45215;32.610;-115.482;2022-09-09T14:12:41;1.13;;;0.50;;
59410;SDS011;45215;32.610;-115.482;2022-09-09T14:15:09;3.40;;;0.85;;
59410;SDS011;45215;32.610;-115.482;2022-09-09T14:17:37;6.32;;;0.82;;
59410;SDS011;45215;32.610;-115.482;2022-09-09T14:20:04;1.85;;;0.60;;
59410;SDS011;45215;32.610;-115.482;2022-09-09T14:22:36;1.10;;;0.50;;
59410;SDS011;45215;32.610;-115.482;2022-09-09T14:25:04;0.65;;;0.32;;
59410;SDS011;45215;32.610;-115.482;2022-09-09T14:27:31;4.88;;;0.70;;
59410;SDS011;45215;32.610;-115.482;2022-09-09T14:29:58;2.47;;;0.70;;
59410;SDS011;45215;32.610;-115.482;2022-09-09T14:32:25;2.45;;;0.63;;
59410;SDS011;45215;32.610;-115.482;2022-09-09T14:34:52;2.10;;;0.70;;
59410;SDS011;45215;32.610;-115.482;2022-09-09T14:37:18;2.85;;;0.70;;
59410;SDS011;45215;32.610;-115.482;2022-09-09T14:39:45;1.45;;;0.70;;
59410;SDS011;45215;32.610;-115.482;2022-09-09T14:42:13;1.60;;;0.50;;
59410;SDS011;45215;32.610;-115.482;2022-09-09T14:44:39;1.88;;;0.63;;
59410;SDS011;45215;32.610;-115.482;2022-09-09T14:47:06;1.60;;;0.50;;
59410;SDS011;45215;32.610;-115.482;2022-09-09T14:49:36;2.08;;;0.50;;
59410;SDS011;45215;32.610;-115.482;2022-09-09T14:52:03;1.25;;;0.52;;
59410;SDS011;45215;32.610;-115.482;2022-09-09T14:54:31;0.65;;;0.50;;
59410;SDS011;45215;32.610;-115.482;2022-09-09T14:56:58;1.67;;;0.50;;
59410;SDS011;45215;32.610;-115.482;2022-09-09T14:59:24;1.67;;;0.40;;
59410;SDS011;45215;32.610;-115.482;2022-09-09T15:01:50;1.05;;;0.57;;
59410;SDS011;45215;32.610;-115.482;2022-09-09T15:04:16;0.90;;;0.50;;
59410;SDS011;45215;32.610;-115.482;2022-09-09T15:06:43;0.82;;;0.43;;
59410;SDS011;45215;32.610;-115.482;2022-09-09T15:09:13;1.83;;;0.40;;
59410;SDS011;45215;32.610;-115.482;2022-09-09T15:11:40;0.75;;;0.50;;
59410;SDS011;45215;32.610;-115.482;2022-09-09T15:14:07;0.88;;;0.40;;
59410;SDS011;45215;32.610;-115.482;2022-09-09T15:16:34;1.17;;;0.60;;
59410;SDS011;45215;32.610;-115.482;2022-09-09T15:19:01;1.30;;;0.60;;
59410;SDS011;45215;32.610;-115.482;2022-09-09T15:21:32;1.10;;;0.43;;
59410;SDS011;45215;32.610;-115.482;2022-09-09T15:23:59;0.63;;;0.40;;
59410;SDS011;45215;32.610;-115.482;2022-09-09T15:26:26;1.25;;;0.63;;
59410;SDS011;45215;32.610;-115.482;2022-09-09T15:28:52;1.40;;;0.50;;
59410;SDS011;45215;32.610;-115.482;2022-09-09T15:31:21;0.95;;;0.60;;
59410;SDS011;45215;32.610;-115.482;2022-09-09T15:33:56;0.77;;;0.50;;
59410;SDS011;45215;32.610;-115.482;2022-09-09T15:38:58;14.23;;;1.10;;
59410;SDS011;45215;32.610;-115.482;2022-09-09T15:41:25;1.52;;;0.57;;
59410;SDS011;45215;32.610;-115.482;2022-09-09T15:43:52;1.98;;;0.60;;
59410;SDS011;45215;32.610;-115.482;2022-09-09T15:48:56;1.38;;;0.50;;
59410;SDS011;45215;32.610;-115.482;2022-09-09T15:51:44;0.98;;;0.50;;
59410;SDS011;45215;32.610;-115.482;2022-09-09T15:54:16;2.00;;;0.52;;
59410;SDS011;45215;32.610;-115.482;2022-09-09T15:56:44;1.65;;;0.57;;
59410;SDS011;45215;32.610;-115.482;2022-09-09T15:59:11;2.08;;;0.60;;
59410;SDS011;45215;32.610;-115.482;2022-09-09T16:01:40;1.42;;;0.70;;
59410;SDS011;45215;32.610;-115.482;2022-09-09T16:04:07;1.00;;;0.60;;
59410;SDS011;45215;32.610;-115.482;2022-09-09T16:06:34;1.33;;;0.60;;
59410;SDS011;45215;32.610;-115.482;2022-09-09T16:09:01;2.92;;;0.60;;
59410;SDS011;45215;32.610;-115.482;2022-09-09T16:11:30;2.20;;;0.60;;
59410;SDS011;45215;32.610;-115.482;2022-09-09T16:13:59;1.17;;;0.70;;
59410;SDS011;45215;32.610;-115.482;2022-09-09T16:16:27;1.73;;;0.70;;
59410;SDS011;45215;32.610;-115.482;2022-09-09T16:18:55;1.02;;;0.60;;
59410;SDS011;45215;32.610;-115.482;2022-09-09T16:21:24;1.10;;;0.55;;
59410;SDS011;45215;32.610;-115.482;2022-09-09T16:23:54;1.80;;;0.60;;
59410;SDS011;45215;32.610;-115.482;2022-09-09T16:26:22;1.20;;;0.43;;
59410;SDS011;45215;32.610;-115.482;2022-09-09T16:28:48;1.58;;;0.60;;
59410;SDS011;45215;32.610;-115.482;2022-09-09T16:31:18;0.93;;;0.60;;
59410;SDS011;45215;32.610;-115.482;2022-09-09T16:33:46;1.02;;;0.50;;
59410;SDS011;45215;32.610;-115.482;2022-09-09T16:36:14;0.57;;;0.45;;
59410;SDS011;45215;32.610;-115.482;2022-09-09T16:38:46;2.10;;;0.60;;
59410;SDS011;45215;32.610;-115.482;2022-09-09T16:41:13;0.80;;;0.57;;
59410;SDS011;45215;32.610;-115.482;2022-09-09T16:43:40;1.67;;;0.57;;
59410;SDS011;45215;32.610;-115.482;2022-09-09T16:46:24;1.58;;;0.65;;
59410;SDS011;45215;32.610;-115.482;2022-09-09T16:48:53;1.80;;;0.60;;
59410;SDS011;45215;32.610;-115.482;2022-09-09T16:51:30;0.98;;;0.60;;
59410;SDS011;45215;32.610;-115.482;2022-09-09T16:53:59;1.58;;;0.60;;
59410;SDS011;45215;32.610;-115.482;2022-09-09T16:56:28;1.92;;;0.70;;
59410;SDS011;45215;32.610;-115.482;2022-09-09T16:58:59;2.72;;;0.80;;
59410;SDS011;45215;32.610;-115.482;2022-09-09T17:01:27;1.75;;;0.63;;